Time;durP1;ratioP1;P1;durP2;ratioP2;P2;SDS_P1;SDS_P2;PMS_P1;PMS_P2;Temp;Humidity;BMP_temperature;BMP_pressure;BME280_temperature;BME280_humidity;BME280_pressure;Samples;Min_cycle;Max_cycle;Signal;HPM_P1;HPM_P2
2022/04/28 00:02:07;;;;;;;5.50;2.80;;;;;;;15.95;40.24;100955.83;117497;1185;21836;-54
2022/04/28 00:04:36;;;;;;;5.60;2.60;;;;;;;15.94;40.23;100955.67;117523;1186;23445;-54
2022/04/28 00:07:06;;;;;;;6.50;2.80;;;;;;;15.96;40.39;100954.74;117505;1186;22922;-54
2022/04/28 00:09:35;;;;;;;6.10;3.50;;;;;;;15.97;40.24;100961.77;117521;1185;23487;-46
2022/04/28 00:12:04;;;;;;;4.70;2.90;;;;;;;15.98;40.35;100962.30;117539;1186;23558;-54
2022/04/28 00:14:33;;;;;;;6.30;3.10;;;;;;;16.00;40.46;100961.18;117544;1186;23642;-53
2022/04/28 00:17:03;;;;;;;7.00;2.90;;;;;;;16.03;40.40;100959.88;117372;1185;22696;-46
2022/04/28 00:19:31;;;;;;;6.70;3.10;;;;;;;16.04;40.31;100963.20;117469;1184;23548;-46
2022/04/28 00:22:00;;;;;;;6.80;3.00;;;;;;;16.04;40.33;100965.15;117512;1185;23462;-51
2022/04/28 00:24:28;;;;;;;5.70;2.70;;;;;;;16.04;40.39;100960.55;117513;1185;24141;-46
2022/04/28 00:26:58;;;;;;;4.30;2.90;;;;;;;16.03;40.40;100962.69;117574;1185;21925;-46
2022/04/28 00:29:26;;;;;;;5.30;2.60;;;;;;;16.01;40.42;100959.73;117490;1185;24146;-54
2022/04/28 00:31:55;;;;;;;3.70;2.70;;;;;;;16.02;40.41;100962.55;117456;1186;23471;-46
2022/04/28 00:34:24;;;;;;;5.90;3.10;;;;;;;16.03;40.42;100959.68;117408;1180;21971;-47
2022/04/28 00:36:53;;;;;;;5.30;3.20;;;;;;;16.04;40.50;100956.48;117369;1185;21984;-54
2022/04/28 00:39:22;;;;;;;5.40;2.90;;;;;;;16.06;40.52;100956.44;117555;1185;21984;-46
2022/04/28 00:41:50;;;;;;;5.20;3.10;;;;;;;16.08;40.57;100953.54;117565;1185;24185;-54
2022/04/28 00:44:20;;;;;;;4.00;2.60;;;;;;;16.10;40.56;100952.44;117545;1186;21845;-46
2022/04/28 00:46:48;;;;;;;4.00;2.50;;;;;;;16.12;40.62;100951.83;117375;1186;23480;-46
2022/04/28 00:52:04;;;;;;;5.20;3.20;;;;;;;16.15;40.63;100950.01;117474;1186;23517;-46
2022/04/28 00:54:34;;;;;;;4.80;2.80;;;;;;;16.17;40.60;100948.71;117459;1186;21854;-54
2022/04/28 00:57:03;;;;;;;4.70;2.80;;;;;;;16.18;40.60;100950.27;117438;1186;23550;-52
2022/04/28 00:59:32;;;;;;;3.80;2.60;;;;;;;16.20;40.66;100945.08;117464;1186;24167;-46
2022/04/28 01:02:01;;;;;;;4.10;2.70;;;;;;;16.21;40.61;100947.00;117344;1186;23447;-55
2022/04/28 01:04:38;;;;;;;4.50;3.10;;;;;;;16.23;40.66;100947.49;117443;1183;24262;-54
2022/04/28 01:07:10;;;;;;;4.50;2.90;;;;;;;16.23;40.68;100949.80;117403;1185;24141;-46
2022/04/28 01:09:41;;;;;;;5.80;3.20;;;;;;;16.23;40.67;100951.20;117360;1189;22966;-54
2022/04/28 01:12:14;;;;;;;4.30;2.80;;;;;;;16.24;40.61;100950.46;117427;1185;23547;-46
2022/04/28 01:14:47;;;;;;;4.80;2.90;;;;;;;16.24;40.65;100953.64;117474;1186;23446;-51
2022/04/28 01:17:16;;;;;;;5.00;3.20;;;;;;;16.25;40.71;100952.91;117427;1186;23444;-46
2022/04/28 01:19:45;;;;;;;4.20;2.90;;;;;;;16.27;40.69;100949.70;117410;1186;21848;-54
2022/04/28 01:22:18;;;;;;;5.30;3.10;;;;;;;16.28;40.73;100947.02;117444;1185;23653;-46
2022/04/28 01:24:55;;;;;;;4.80;2.80;;;;;;;16.29;40.74;100942.56;117395;1186;21924;-47
2022/04/28 01:27:24;;;;;;;6.60;3.00;;;;;;;16.29;40.68;100939.02;117636;1185;23502;-46
2022/04/28 01:29:53;;;;;;;5.00;2.60;;;;;;;16.30;40.73;100945.17;117397;1186;23487;-46
2022/04/28 01:32:22;;;;;;;3.60;2.50;;;;;;;16.30;40.68;100945.89;117555;1186;21845;-47
2022/04/28 01:34:52;;;;;;;4.70;2.70;;;;;;;16.31;40.78;100953.28;117435;1185;22620;-54
2022/04/28 01:37:22;;;;;;;4.70;3.10;;;;;;;16.33;40.77;100952.34;117489;1185;22621;-53
2022/04/28 01:39:52;;;;;;;4.30;3.10;;;;;;;16.34;40.74;100951.27;117489;1186;23445;-46
2022/04/28 01:42:20;;;;;;;4.20;3.10;;;;;;;16.35;40.80;100949.45;117528;1185;23576;-46
2022/04/28 01:44:49;;;;;;;7.30;3.20;;;;;;;16.40;40.78;100948.29;117494;1185;24156;-54
2022/04/28 01:47:18;;;;;;;5.70;2.20;;;;;;;16.37;40.75;100944.80;117354;1185;22929;-46
2022/04/28 01:49:47;;;;;;;4.90;2.60;;;;;;;16.35;40.84;100943.61;117584;1185;23481;-54
2022/04/28 01:55:06;;;;;;;5.50;2.80;;;;;;;16.35;40.78;100935.45;117520;1185;23442;-54
2022/04/28 01:57:39;;;;;;;4.50;3.00;;;;;;;16.35;40.77;100934.05;117526;1185;23544;-53
2022/04/28 02:00:08;;;;;;;5.50;2.40;;;;;;;16.35;40.82;100930.86;117504;1185;23362;-46
2022/04/28 02:02:36;;;;;;;6.40;2.80;;;;;;;16.34;40.75;100927.35;117567;1188;21846;-46
2022/04/28 02:05:11;;;;;;;5.30;2.90;;;;;;;16.34;40.76;100927.88;117444;1184;24243;-46
2022/04/28 02:07:40;;;;;;;6.40;2.70;;;;;;;16.37;40.89;100924.27;117482;1184;23504;-53
2022/04/28 02:10:09;;;;;;;5.40;3.10;;;;;;;16.39;40.80;100924.23;117473;1186;21846;-55
2022/04/28 02:12:39;;;;;;;6.00;2.80;;;;;;;16.40;40.84;100921.88;117523;1185;22915;-46
2022/04/28 02:15:09;;;;;;;5.50;3.00;;;;;;;16.40;40.87;100915.52;117454;1185;23505;-54
2022/04/28 02:17:39;;;;;;;5.20;2.50;;;;;;;16.39;40.79;100912.70;117505;1181;23012;-53
2022/04/28 02:20:11;;;;;;;5.80;2.50;;;;;;;16.37;40.81;100910.09;117512;1184;23442;-47
2022/04/28 02:22:41;;;;;;;6.60;3.10;;;;;;;16.35;40.77;100907.31;117474;1186;23467;-54
2022/04/28 02:25:14;;;;;;;8.00;2.90;;;;;;;16.33;40.81;100909.33;117489;1185;23472;-53
2022/04/28 02:27:42;;;;;;;4.90;2.70;;;;;;;16.30;40.79;100908.70;117549;1185;24142;-46
2022/04/28 02:30:15;;;;;;;5.80;2.60;;;;;;;16.27;40.86;100909.67;117511;1186;23445;-46
2022/04/28 02:35:31;;;;;;;15.20;3.60;;;;;;;16.21;40.91;100911.95;117480;1186;23716;-54
2022/04/28 02:38:00;;;;;;;7.20;2.60;;;;;;;16.19;41.00;100909.87;117385;1181;22960;-51
2022/04/28 02:40:31;;;;;;;13.70;3.80;;;;;;;16.18;40.92;100910.61;117551;1183;24184;-47
2022/04/28 02:43:02;;;;;;;;;;;;;;;16.15;40.88;100916.89;117537;1186;21861;-54
2022/04/28 02:45:31;;;;;;;15.30;2.80;;;;;;;16.13;40.92;100920.48;117536;1185;23494;-54
2022/04/28 02:48:00;;;;;;;14.30;2.70;;;;;;;16.11;41.01;100925.35;117507;1185;21840;-53
2022/04/28 02:50:30;;;;;;;6.70;2.40;;;;;;;16.11;41.11;100927.80;117516;1186;23548;-46
2022/04/28 02:53:00;;;;;;;14.40;3.90;;;;;;;16.10;40.94;100928.17;117572;1184;22611;-47
2022/04/28 02:55:28;;;;;;;9.60;2.70;;;;;;;16.11;41.01;100931.36;117378;1185;23550;-55
2022/04/28 02:57:57;;;;;;;8.40;2.50;;;;;;;16.09;41.05;100935.13;117455;1184;23573;-47
2022/04/28 03:00:29;;;;;;;11.80;2.90;;;;;;;16.06;41.01;100939.27;117408;1186;22823;-47
2022/04/28 03:02:58;;;;;;;7.50;2.90;;;;;;;16.05;40.91;100941.05;117407;1185;21897;-47
2022/04/28 03:05:26;;;;;;;6.40;2.50;;;;;;;16.04;41.04;100943.20;117495;1185;23569;-47
2022/04/28 03:13:21;;;;;;;11.10;2.50;;;;;;;16.06;41.00;100950.41;117473;1185;23528;-54
2022/04/28 03:15:50;;;;;;;10.30;2.50;;;;;;;16.09;41.14;100956.91;117446;1180;21868;-55
2022/04/28 03:18:20;;;;;;;8.60;2.30;;;;;;;16.13;41.15;100957.13;117351;1185;21861;-47
2022/04/28 03:20:49;;;;;;;7.20;2.00;;;;;;;16.16;41.10;100958.27;118131;1184;23541;-47
2022/04/28 03:23:18;;;;;;;15.70;2.50;;;;;;;16.20;41.15;100959.94;117389;1185;22767;-47
2022/04/28 03:25:48;;;;;;;24.70;3.80;;;;;;;16.24;41.10;100965.16;117435;1185;23552;-55
2022/04/28 03:28:19;;;;;;;7.00;2.40;;;;;;;16.27;41.17;100966.52;117330;1186;23475;-55
2022/04/28 03:30:49;;;;;;;8.70;2.00;;;;;;;16.31;41.12;100967.63;117460;1185;24203;-55
2022/04/28 03:33:19;;;;;;;8.00;2.00;;;;;;;16.34;41.12;100968.43;117523;1184;21848;-55
2022/04/28 03:35:48;;;;;;;5.80;1.80;;;;;;;16.35;41.08;100970.54;117559;1185;21849;-55
2022/04/28 03:38:17;;;;;;;10.10;2.70;;;;;;;16.37;41.04;100971.02;117528;1185;23467;-47
2022/04/28 03:40:45;;;;;;;13.90;3.00;;;;;;;16.39;41.14;100975.39;117404;1185;22218;-55
2022/04/28 03:43:17;;;;;;;10.00;2.40;;;;;;;16.42;41.14;100980.63;117573;1184;23466;-55
2022/04/28 03:45:46;;;;;;;;;;;;;;;16.44;41.19;100980.05;117506;1184;24226;-55
2022/04/28 03:48:15;;;;;;;14.70;3.20;;;;;;;16.46;41.22;100981.41;117368;1186;21840;-47
2022/04/28 03:50:44;;;;;;;8.90;2.80;;;;;;;16.48;41.15;100978.52;117496;1184;21893;-53
2022/04/28 03:53:12;;;;;;;19.10;4.00;;;;;;;16.50;41.16;100979.52;117412;1185;23477;-48
2022/04/28 03:55:40;;;;;;;16.50;4.20;;;;;;;16.53;41.24;100978.92;117410;1185;23467;-47
2022/04/28 03:58:09;;;;;;;9.60;2.30;;;;;;;16.57;41.24;100981.65;117464;1185;23537;-55
2022/04/28 04:00:37;;;;;;;9.00;2.10;;;;;;;16.60;41.20;100977.48;117317;1185;23480;-47
2022/04/28 04:03:05;;;;;;;7.70;2.10;;;;;;;16.62;41.18;100986.11;117509;1183;23442;-56
2022/04/28 04:05:37;;;;;;;9.50;2.60;;;;;;;16.63;41.27;100988.54;117502;1185;23478;-56
2022/04/28 04:08:06;;;;;;;6.70;2.40;;;;;;;16.69;41.22;100990.52;117527;1185;23468;-56
2022/04/28 04:10:35;;;;;;;10.00;2.10;;;;;;;16.72;41.15;100985.48;117535;1180;22937;-55
2022/04/28 04:13:04;;;;;;;4.80;2.20;;;;;;;16.70;41.25;100987.84;117525;1186;23675;-48
2022/04/28 04:15:33;;;;;;;4.70;2.10;;;;;;;16.72;41.25;100988.33;117564;1183;21862;-47
2022/04/28 04:18:02;;;;;;;5.30;1.90;;;;;;;16.77;41.12;100987.98;117569;1183;22623;-55
2022/04/28 04:20:30;;;;;;;10.50;3.00;;;;;;;16.80;41.09;100987.90;117611;1186;22919;-47
2022/04/28 04:23:01;;;;;;;8.10;2.10;;;;;;;16.81;41.14;100990.52;117679;1183;22902;-47
2022/04/28 04:25:34;;;;;;;6.30;2.20;;;;;;;16.83;41.14;100989.95;117485;1186;23468;-55
2022/04/28 04:28:04;;;;;;;3.70;1.90;;;;;;;16.83;41.05;100991.71;117634;1183;23439;-47
2022/04/28 04:33:24;;;;;;;5.00;2.00;;;;;;;16.86;41.14;100999.95;117530;1183;23469;-55
2022/04/28 04:35:53;;;;;;;3.50;1.90;;;;;;;16.86;41.17;100996.96;117637;1183;23537;-55
2022/04/28 04:38:21;;;;;;;4.00;1.90;;;;;;;16.84;41.15;100999.48;117630;1183;21839;-48
2022/04/28 04:40:50;;;;;;;17.50;2.50;;;;;;;16.80;41.26;100997.98;117662;1183;22941;-54
2022/04/28 04:43:19;;;;;;;4.50;2.10;;;;;;;16.82;41.16;101000.27;117425;1186;23436;-55
2022/04/28 04:45:47;;;;;;;12.20;2.60;;;;;;;16.82;41.26;101005.92;117628;1183;24142;-46
2022/04/28 04:48:22;;;;;;;5.50;2.10;;;;;;;16.83;41.27;101010.85;117609;1183;22354;-47
2022/04/28 04:50:52;;;;;;;2.70;1.90;;;;;;;16.85;41.22;101013.82;117414;1185;21849;-54
2022/04/28 04:53:21;;;;;;;3.00;2.00;;;;;;;16.85;41.22;101017.53;117536;1186;22956;-49
2022/04/28 04:55:54;;;;;;;6.90;2.20;;;;;;;16.87;41.25;101016.08;117385;1185;24206;-53
2022/04/28 04:58:22;;;;;;;4.60;2.10;;;;;;;16.90;41.37;101019.36;117480;1185;21896;-47
2022/04/28 05:01:05;;;;;;;4.50;2.10;;;;;;;16.94;41.31;101016.05;117498;1185;23545;-53
2022/04/28 05:03:34;;;;;;;5.50;2.60;;;;;;;16.98;41.35;101020.23;117485;1185;21927;-45
2022/04/28 05:06:03;;;;;;;6.50;2.40;;;;;;;17.02;41.31;101021.86;117515;1185;24261;-46
2022/04/28 05:08:31;;;;;;;7.10;2.30;;;;;;;17.07;41.32;101022.43;117564;1185;23462;-53
2022/04/28 05:11:00;;;;;;;4.40;2.20;;;;;;;17.12;41.28;101021.94;117546;1185;23455;-50
2022/04/28 05:13:30;;;;;;;3.90;2.20;;;;;;;17.18;41.39;101024.26;117537;1181;24154;-45
2022/04/28 05:15:58;;;;;;;3.60;2.60;;;;;;;17.22;41.34;101027.14;117464;1185;24216;-53
2022/04/28 05:18:30;;;;;;;5.30;2.10;;;;;;;17.27;41.39;101024.33;118136;1184;22308;-53
2022/04/28 05:21:04;;;;;;;4.30;2.80;;;;;;;17.32;41.37;101024.20;117643;1185;21829;-46
2022/04/28 05:23:32;;;;;;;40.10;5.30;;;;;;;17.38;41.28;101026.14;117603;1183;23573;-46
2022/04/28 05:26:00;;;;;;;7.70;3.20;;;;;;;17.45;41.34;101029.30;117633;1183;24219;-54
2022/04/28 05:28:33;;;;;;;4.10;2.50;;;;;;;17.49;41.28;101031.63;117517;1185;23442;-53
2022/04/28 05:31:02;;;;;;;4.70;2.40;;;;;;;17.54;41.41;101036.29;117687;1183;24219;-45
2022/04/28 05:33:32;;;;;;;5.00;2.90;;;;;;;17.60;41.30;101038.25;117596;1183;23689;-53
2022/04/28 05:36:01;;;;;;;6.70;2.40;;;;;;;17.67;41.27;101047.08;117644;1183;23558;-45
2022/04/28 05:38:33;;;;;;;5.00;2.70;;;;;;;17.72;41.29;101046.92;117595;1185;21849;-45
2022/04/28 05:41:02;;;;;;;5.10;2.90;;;;;;;17.75;41.28;101045.23;117661;1183;24155;-46
2022/04/28 05:46:20;;;;;;;7.30;2.80;;;;;;;17.86;41.35;101051.98;117669;1179;23550;-53
2022/04/28 05:48:49;;;;;;;7.80;2.40;;;;;;;17.91;41.27;101046.30;117441;1186;24174;-53
2022/04/28 05:51:21;;;;;;;4.00;2.50;;;;;;;17.96;41.36;101047.74;117454;1185;24158;-53
2022/04/28 05:53:51;;;;;;;4.20;2.50;;;;;;;18.02;41.29;101045.81;117615;1186;23445;-45
2022/04/28 05:56:19;;;;;;;4.90;2.80;;;;;;;18.08;41.35;101048.64;117592;1183;23480;-53
2022/04/28 05:58:48;;;;;;;4.40;2.80;;;;;;;18.15;41.28;101049.48;117627;1183;23456;-46
2022/04/28 06:01:17;;;;;;;4.10;2.60;;;;;;;18.21;41.36;101048.02;117640;1183;23547;-53
2022/04/28 06:03:46;;;;;;;4.90;2.50;;;;;;;18.27;41.31;101045.86;117632;1183;23569;-46
2022/04/28 06:06:19;;;;;;;4.60;2.40;;;;;;;18.36;41.30;101042.21;117605;1183;23542;-45
2022/04/28 06:09:04;;;;;;;4.90;2.60;;;;;;;18.43;41.34;101046.05;117459;1186;24270;-46
2022/04/28 06:11:34;;;;;;;4.80;2.70;;;;;;;18.52;41.35;101045.40;117572;1184;21848;-53
2022/04/28 06:14:02;;;;;;;6.10;3.10;;;;;;;18.58;41.32;101049.62;117548;1186;23462;-45
2022/04/28 06:16:34;;;;;;;9.20;2.60;;;;;;;18.63;41.24;101047.84;117567;1183;21973;-53
2022/04/28 06:19:21;;;;;;;5.50;2.90;;;;;;;18.70;41.20;101052.39;119654;1183;22098;-54
2022/04/28 06:21:50;;;;;;;7.80;3.20;;;;;;;18.77;41.17;101055.19;117638;1183;21862;-46
2022/04/28 06:24:24;;;;;;;5.60;3.00;;;;;;;18.83;41.25;101057.98;117544;1183;23471;-53
2022/04/28 06:26:52;;;;;;;6.80;2.70;;;;;;;18.90;41.25;101057.20;117327;1185;23588;-46
2022/04/28 06:29:20;;;;;;;5.90;2.90;;;;;;;18.95;41.31;101064.66;117523;1184;23573;-54
2022/04/28 06:31:48;;;;;;;8.30;2.80;;;;;;;19.01;41.27;101064.66;118452;1185;23547;-47
2022/04/28 06:34:18;;;;;;;7.80;2.90;;;;;;;19.05;41.27;101064.89;117589;1183;23450;-54
2022/04/28 06:36:48;;;;;;;5.40;2.70;;;;;;;19.07;41.18;101064.27;117562;1186;23517;-46
2022/04/28 06:39:16;;;;;;;12.70;3.10;;;;;;;19.09;41.16;101066.88;117576;1187;21860;-54
2022/04/28 06:41:50;;;;;;;11.20;3.60;;;;;;;19.10;41.08;101067.71;117512;1179;24145;-47
2022/04/28 06:44:20;;;;;;;8.90;2.90;;;;;;;19.12;41.16;101066.92;117602;1185;24159;-46
2022/04/28 06:46:48;;;;;;;7.90;3.10;;;;;;;19.14;41.11;101066.15;117566;1185;23541;-46
2022/04/28 06:49:19;;;;;;;10.10;3.10;;;;;;;19.15;41.15;101068.77;119625;1183;22150;-47
2022/04/28 06:51:48;;;;;;;6.20;2.90;;;;;;;19.15;41.09;101065.02;118398;1183;21848;-47
2022/04/28 06:54:16;;;;;;;6.00;2.80;;;;;;;19.18;41.13;101060.31;117503;1185;21939;-54
2022/04/28 06:56:48;;;;;;;8.00;2.80;;;;;;;19.21;41.16;101060.73;117561;1185;23472;-53
2022/04/28 06:59:17;;;;;;;5.40;2.40;;;;;;;19.26;41.21;101064.66;117479;1185;23451;-55
2022/04/28 07:01:45;;;;;;;7.20;2.50;;;;;;;19.31;41.16;101060.73;117677;1183;24151;-54
2022/04/28 07:04:16;;;;;;;13.10;3.10;;;;;;;19.39;41.25;101066.81;117615;1185;21857;-46
2022/04/28 07:06:44;;;;;;;10.00;2.90;;;;;;;19.49;41.28;101066.77;117482;1186;24162;-55
2022/04/28 07:09:19;;;;;;;7.70;2.80;;;;;;;19.61;41.24;101067.94;117634;1186;23449;-55
2022/04/28 07:11:49;;;;;;;7.20;3.00;;;;;;;19.73;41.31;101065.14;117713;1182;23567;-47
2022/04/28 07:14:22;;;;;;;5.50;2.70;;;;;;;19.86;41.27;101066.23;117588;1185;24154;-47
2022/04/28 07:16:50;;;;;;;5.20;2.60;;;;;;;19.99;41.26;101063.77;117478;1185;23458;-47
2022/04/28 07:19:19;;;;;;;5.90;2.30;;;;;;;20.15;41.38;101069.19;117629;1183;23436;-47
2022/04/28 07:21:48;;;;;;;12.80;3.50;;;;;;;20.33;41.39;101073.44;117601;1182;23442;-47
2022/04/28 07:24:16;;;;;;;6.60;3.10;;;;;;;20.52;41.48;101076.21;117594;1186;24165;-47
2022/04/28 07:26:44;;;;;;;3.90;2.70;;;;;;;20.68;41.42;101081.92;117424;1186;22869;-55
2022/04/28 07:29:12;;;;;;;6.80;2.80;;;;;;;20.79;41.20;101079.84;117655;1184;23821;-47
2022/04/28 07:31:43;;;;;;;4.50;2.70;;;;;;;20.88;41.04;101077.88;117641;1182;22947;-47
2022/04/28 07:34:14;;;;;;;6.50;3.20;;;;;;;20.93;40.91;101079.62;117685;1185;21865;-47
2022/04/28 07:36:44;;;;;;;5.90;2.80;;;;;;;20.97;40.89;101084.83;117385;1186;21849;-47
2022/04/28 07:39:13;;;;;;;5.60;2.60;;;;;;;20.98;40.86;101088.48;117630;1185;23468;-56
2022/04/28 07:41:46;;;;;;;6.20;2.60;;;;;;;20.99;40.72;101087.36;117636;1182;23550;-56
2022/04/28 07:44:14;;;;;;;9.10;2.80;;;;;;;21.03;40.80;101086.50;117634;1183;23547;-55
2022/04/28 07:46:42;;;;;;;11.20;3.70;;;;;;;21.06;40.74;101087.42;117624;1183;23642;-55
2022/04/28 07:49:10;;;;;;;8.50;3.80;;;;;;;21.11;40.93;101092.73;117624;1185;23547;-54
2022/04/28 07:51:39;;;;;;;11.40;4.40;;;;;;;21.20;40.81;101097.52;117560;1183;23551;-55
2022/04/28 07:54:09;;;;;;;13.90;4.90;;;;;;;21.29;40.87;101097.97;117493;1184;21849;-55
2022/04/28 07:56:38;;;;;;;12.90;5.00;;;;;;;21.39;40.86;101098.27;117524;1182;22908;-54
2022/04/28 07:59:09;;;;;;;8.70;3.60;;;;;;;21.47;40.93;101097.33;117661;1182;23547;-55
2022/04/28 08:01:53;;;;;;;7.50;3.60;;;;;;;21.57;40.95;101097.09;117608;1186;21850;-55
2022/04/28 08:04:22;;;;;;;7.10;3.20;;;;;;;21.65;40.85;101097.25;117530;1182;22921;-47
2022/04/28 08:07:03;;;;;;;7.40;2.90;;;;;;;21.73;40.76;101096.86;117645;1182;24005;-48
2022/04/28 08:09:33;;;;;;;5.30;3.00;;;;;;;21.79;40.67;101097.86;117612;1183;23441;-47
2022/04/28 08:12:06;;;;;;;5.60;2.80;;;;;;;21.82;40.55;101100.38;117603;1183;23547;-55
2022/04/28 08:14:57;;;;;;;5.70;2.70;;;;;;;21.84;40.70;101101.17;117603;1183;21931;-47
2022/04/28 08:17:27;;;;;;;7.20;2.90;;;;;;;21.84;40.54;101100.98;117587;1183;24194;-47
2022/04/28 08:20:01;;;;;;;4.90;2.80;;;;;;;21.84;40.46;101098.50;117538;1183;23563;-55
2022/04/28 08:22:32;;;;;;;5.00;2.70;;;;;;;21.82;40.51;101101.09;117606;1182;21862;-55
2022/04/28 08:25:02;;;;;;;5.90;3.00;;;;;;;21.80;40.41;101096.90;117647;1183;23823;-55
2022/04/28 08:27:31;;;;;;;5.20;3.50;;;;;;;21.78;40.32;101098.80;117324;1185;21849;-48
2022/04/28 08:30:00;;;;;;;8.80;3.50;;;;;;;21.71;40.37;101100.18;117611;1182;24155;-48
2022/04/28 08:32:33;;;;;;;6.10;4.00;;;;;;;21.64;40.26;101097.83;117604;1182;23614;-56
2022/04/28 08:35:01;;;;;;;12.70;4.70;;;;;;;21.59;40.18;101095.20;117586;1182;21849;-47
2022/04/28 08:37:30;;;;;;;8.00;4.20;;;;;;;21.55;40.21;101092.86;117564;1185;23682;-47
2022/04/28 08:39:58;;;;;;;6.00;3.30;;;;;;;21.53;40.35;101091.54;117487;1183;23490;-55
2022/04/28 08:42:27;;;;;;;6.40;3.30;;;;;;;21.51;40.20;101094.13;117543;1183;23580;-48
2022/04/28 08:44:58;;;;;;;6.50;2.70;;;;;;;21.51;40.23;101094.85;117488;1186;24168;-47
2022/04/28 08:47:27;;;;;;;5.50;3.20;;;;;;;21.54;40.29;101100.42;117469;1185;21909;-48
2022/04/28 08:50:10;;;;;;;6.40;2.80;;;;;;;21.61;40.45;101104.58;117322;1184;24207;-55
2022/04/28 08:52:39;;;;;;;8.20;2.80;;;;;;;21.72;40.55;101100.83;117425;1186;22472;-55
2022/04/28 08:55:08;;;;;;;4.40;2.70;;;;;;;21.84;40.42;101102.80;117630;1183;23459;-47
2022/04/28 08:57:36;;;;;;;5.00;2.90;;;;;;;21.95;40.55;101100.48;117614;1183;23464;-48
2022/04/28 09:00:06;;;;;;;7.20;3.00;;;;;;;22.03;40.36;101102.96;117390;1186;24168;-56
2022/04/28 09:02:35;;;;;;;4.90;2.60;;;;;;;22.10;40.34;101100.46;117462;1183;21904;-47
2022/04/28 09:05:05;;;;;;;9.80;3.00;;;;;;;22.16;40.25;101098.38;117651;1183;22671;-54
2022/04/28 09:07:38;;;;;;;4.70;2.70;;;;;;;22.20;40.12;101095.15;117619;1185;21845;-48
2022/04/28 09:10:32;;;;;;;8.10;2.70;;;;;;;22.22;40.20;101099.54;117556;1186;23573;-47
2022/04/28 09:15:52;;;;;;;5.10;2.50;;;;;;;22.19;40.06;101098.39;117522;1185;23555;-54
2022/04/28 09:18:22;;;;;;;4.20;2.30;;;;;;;22.19;40.18;101096.80;117413;1185;22947;-47
2022/04/28 09:20:50;;;;;;;3.50;2.20;;;;;;;22.24;40.14;101096.75;117576;1183;21959;-53
2022/04/28 09:23:21;;;;;;;4.90;2.60;;;;;;;22.32;40.19;101102.41;118121;1183;24154;-54
2022/04/28 09:25:51;;;;;;;5.10;2.40;;;;;;;22.45;40.25;101097.17;117555;1183;21899;-54
2022/04/28 09:28:22;;;;;;;4.10;2.50;;;;;;;22.58;40.42;101100.44;117369;1186;23435;-47
2022/04/28 09:30:50;;;;;;;;;;;;;;;22.72;40.43;101101.31;117394;1185;21847;-46
2022/04/28 09:33:20;;;;;;;13.50;2.60;;;;;;;22.87;40.37;101097.15;117598;1183;21973;-54
2022/04/28 09:35:50;;;;;;;11.90;3.60;;;;;;;22.98;40.39;101092.42;119189;1178;23550;-54
2022/04/28 09:38:24;;;;;;;5.90;2.10;;;;;;;23.08;40.26;101091.02;117523;1186;24253;-53
2022/04/28 09:44:00;;;;;;;5.60;2.50;;;;;;;23.15;40.05;101091.02;117457;1183;23461;-54
2022/04/28 09:46:44;;;;;;;11.40;2.80;;;;;;;23.15;39.97;101089.38;117478;1184;24267;-47
2022/04/28 09:49:16;;;;;;;3.60;2.30;;;;;;;23.13;39.90;101094.70;117687;1182;21867;-47
2022/04/28 09:51:46;;;;;;;4.70;2.30;;;;;;;23.08;39.80;101093.70;117548;1184;23471;-54
2022/04/28 09:54:16;;;;;;;6.80;2.90;;;;;;;23.03;39.79;101094.84;117633;1182;21864;-54
2022/04/28 09:56:45;;;;;;;4.30;2.30;;;;;;;22.97;39.75;101093.58;117561;1183;21847;-54
2022/04/28 09:59:13;;;;;;;7.10;3.10;;;;;;;22.88;39.66;101096.55;117522;1185;23471;-47
2022/04/28 10:01:44;;;;;;;5.50;2.50;;;;;;;22.79;39.57;101097.89;117570;1183;21844;-47
2022/04/28 10:04:15;;;;;;;4.20;2.10;;;;;;;22.70;39.52;101099.47;117488;1183;21857;-47
2022/04/28 10:06:44;;;;;;;5.50;2.50;;;;;;;22.59;39.51;101099.31;117564;1182;21853;-47
2022/04/28 10:09:13;;;;;;;9.60;3.10;;;;;;;22.51;39.55;101101.14;117491;1179;23464;-55
2022/04/28 10:11:42;;;;;;;4.30;2.40;;;;;;;22.43;39.51;101102.23;117352;1186;23572;-48
2022/04/28 10:14:11;;;;;;;6.80;2.30;;;;;;;22.33;39.36;101107.17;117429;1186;24268;-47
2022/04/28 10:16:45;;;;;;;4.70;2.60;;;;;;;22.24;39.51;101107.27;117360;1186;21852;-54
2022/04/28 10:19:20;;;;;;;9.50;2.70;;;;;;;22.15;39.44;101113.97;117361;1186;21852;-47
2022/04/28 10:21:50;;;;;;;7.90;3.20;;;;;;;22.06;39.41;101114.05;117564;1183;21843;-54
2022/04/28 10:33:10;;;;;;;4.70;2.60;;;;;;;21.72;39.43;101113.54;117482;1185;23657;-54
2022/04/28 10:35:47;;;;;;;5.30;2.70;;;;;;;21.66;39.55;101115.80;117515;1183;21884;-48
2022/04/28 10:38:31;;;;;;;5.80;2.40;;;;;;;21.59;39.45;101117.69;117571;1185;23548;-48
2022/04/28 10:41:11;;;;;;;5.60;2.40;;;;;;;21.55;39.65;101118.96;117527;1183;21960;-47
2022/04/28 10:43:40;;;;;;;4.10;2.00;;;;;;;21.51;39.57;101120.54;118831;1182;23481;-55
2022/04/28 10:46:15;;;;;;;5.10;2.60;;;;;;;21.48;39.50;101119.06;117546;1183;23562;-55
2022/04/28 10:48:45;;;;;;;4.30;2.60;;;;;;;21.46;39.66;101115.80;117608;1183;21850;-48
2022/04/28 10:51:22;;;;;;;5.30;2.60;;;;;;;21.44;39.70;101115.34;117630;1183;21850;-55
2022/04/28 10:54:03;;;;;;;4.60;2.70;;;;;;;21.42;39.63;101112.20;117636;1182;22800;-48
2022/04/28 10:56:41;;;;;;;4.00;2.30;;;;;;;21.40;39.72;101110.90;117570;1183;21849;-55
2022/04/28 10:59:29;;;;;;;4.80;2.90;;;;;;;21.39;39.66;101109.67;117599;1184;22601;-48
2022/04/28 11:02:15;;;;;;;6.90;2.70;;;;;;;21.39;39.76;101106.11;117650;1182;22963;-55
2022/04/28 11:04:50;;;;;;;3.90;2.80;;;;;;;21.39;39.84;101109.86;117605;1183;24299;-48
2022/04/28 11:07:21;;;;;;;5.70;2.70;;;;;;;21.38;39.79;101108.09;117651;1182;23477;-47
2022/04/28 11:10:01;;;;;;;6.80;3.00;;;;;;;21.37;39.85;101105.29;117482;1185;23464;-54
2022/04/28 11:12:37;;;;;;;4.90;3.00;;;;;;;21.37;39.67;101104.25;117595;1183;21849;-54
2022/04/28 11:15:10;;;;;;;7.10;3.30;;;;;;;21.35;39.72;101100.78;117607;1186;21857;-55
2022/04/28 11:17:44;;;;;;;5.50;3.50;;;;;;;21.33;39.73;101099.95;117502;1186;21849;-47
2022/04/28 11:20:14;;;;;;;7.10;3.10;;;;;;;21.31;39.74;101098.45;117488;1185;21853;-55
2022/04/28 11:22:51;;;;;;;14.10;4.50;;;;;;;21.27;39.65;101097.20;117420;1184;24159;-47
2022/04/28 11:25:22;;;;;;;6.10;3.20;;;;;;;21.24;39.51;101097.14;117539;1185;22941;-55
2022/04/28 11:27:53;;;;;;;13.40;3.70;;;;;;;21.23;39.75;101098.61;117524;1186;21931;-47
2022/04/28 11:30:27;;;;;;;6.50;3.30;;;;;;;21.22;39.68;101097.92;117520;1184;23560;-48
2022/04/28 11:32:58;;;;;;;5.70;2.70;;;;;;;21.22;39.66;101099.52;117331;1185;23490;-47
2022/04/28 11:35:33;;;;;;;6.80;2.90;;;;;;;21.20;39.59;101097.69;117552;1183;21918;-55
2022/04/28 11:38:01;;;;;;;5.20;3.00;;;;;;;21.17;39.54;101094.06;117547;1183;21847;-55
2022/04/28 11:40:35;;;;;;;4.10;2.90;;;;;;;21.17;39.70;101090.14;117543;1183;23573;-55
2022/04/28 11:43:04;;;;;;;5.00;3.00;;;;;;;21.16;39.71;101083.95;117673;1183;23028;-56
2022/04/28 11:45:37;;;;;;;6.10;2.90;;;;;;;21.16;39.71;101082.52;117540;1186;23059;-56
2022/04/28 11:48:05;;;;;;;7.10;3.20;;;;;;;21.19;39.83;101077.59;117579;1185;23483;-56
2022/04/28 11:50:37;;;;;;;6.50;3.20;;;;;;;21.20;39.64;101077.01;117578;1183;23554;-48
2022/04/28 11:53:09;;;;;;;5.10;3.40;;;;;;;21.20;39.69;101072.88;117398;1184;23100;-48
2022/04/28 11:55:40;;;;;;;5.30;3.00;;;;;;;21.18;39.64;101069.05;117438;1184;23542;-55
2022/04/28 11:58:10;;;;;;;9.20;3.80;;;;;;;21.17;39.71;101069.83;117620;1183;22798;-49
2022/04/28 12:00:46;;;;;;;5.40;3.40;;;;;;;21.14;39.70;101067.61;117509;1182;21855;-48
2022/04/28 12:03:25;;;;;;;5.50;3.10;;;;;;;21.12;39.72;101068.95;117520;1183;21846;-56
2022/04/28 12:05:56;;;;;;;3.40;2.50;;;;;;;21.10;39.69;101069.38;117576;1183;21845;-48
2022/04/28 12:08:27;;;;;;;5.20;3.40;;;;;;;21.12;39.71;101067.21;117581;1183;22920;-56